Chicago, Illinois
Traffic Map
Current Weather Conditions
Chicago, Illinois
Overcast
Overcast
55°
Feels Like: 55°
Wind Chill: 55° Ceiling: 1500
Heat Index: 55° Visibility: 8mi
Dew Point: 51° Wind: 8mph
Humidity: 86% Direction: 360° (N)
Pressure: 30.05in Gusts: 0mph
Raw Report DataKMDW 301544Z 36007KT 8SM SCT007 BKN015 OVC020 13/11 A3005 RMK AO2 DZE16 P0000 T01280106
Traffic Incident Summary
Active as of:
Severity:
Category:
InformationThere was an issue retrieving the traffic information for this location. Please try a different location or try again shortly.
Advertisements
Track Severe Weather on mobile